sensor_id;sensor_type;location;lat;lon;timestamp;pressure;altitude;pressure_sealevel;temperature;humidity
57779;BME280;43608;49.486;9.640;2023-06-10T00:00:29;98399.94;;;13.99;80.98
57779;BME280;43608;49.486;9.640;2023-06-10T00:01:01;98392.06;;;13.94;81.43
57779;BME280;43608;49.486;9.640;2023-06-10T00:01:32;98394.69;;;13.96;81.60
57779;BME280;43608;49.486;9.640;2023-06-10T00:02:04;98398.25;;;13.95;81.60
57779;BME280;43608;49.486;9.640;2023-06-10T00:02:34;98398.22;;;13.96;81.38
57779;BME280;43608;49.486;9.640;2023-06-10T00:03:05;98397.34;;;13.96;81.51
57779;BME280;43608;49.486;9.640;2023-06-10T00:03:35;98396.53;;;13.92;81.55
57779;BME280;43608;49.486;9.640;2023-06-10T00:04:06;98392.97;;;13.93;81.67
57779;BME280;43608;49.486;9.640;2023-06-10T00:04:36;98386.81;;;13.90;81.61
57779;BME280;43608;49.486;9.640;2023-06-10T00:05:07;98391.16;;;13.94;81.79
57779;BME280;43608;49.486;9.640;2023-06-10T00:05:41;98385.97;;;13.87;81.83
57779;BME280;43608;49.486;9.640;2023-06-10T00:06:11;98366.69;;;13.76;81.97
57779;BME280;43608;49.486;9.640;2023-06-10T00:06:43;98392.16;;;13.90;81.84
57779;BME280;43608;49.486;9.640;2023-06-10T00:07:14;98391.28;;;13.87;81.80
57779;BME280;43608;49.486;9.640;2023-06-10T00:07:44;98384.19;;;13.88;81.86
57779;BME280;43608;49.486;9.640;2023-06-10T00:08:16;98391.28;;;13.87;81.91
57779;BME280;43608;49.486;9.640;2023-06-10T00:08:50;98393.03;;;13.88;81.93
57779;BME280;43608;49.486;9.640;2023-06-10T00:09:21;98389.56;;;13.86;81.85
57779;BME280;43608;49.486;9.640;2023-06-10T00:09:51;98389.56;;;13.86;82.01
57779;BME280;43608;49.486;9.640;2023-06-10T00:10:23;98382.59;;;13.79;81.83
57779;BME280;43608;49.486;9.640;2023-06-10T00:10:54;98378.13;;;13.80;81.88
57779;BME280;43608;49.486;9.640;2023-06-10T00:11:24;98370.31;;;13.74;82.01
57779;BME280;43608;49.486;9.640;2023-06-10T00:11:55;98387.81;;;13.85;81.93
57779;BME280;43608;49.486;9.640;2023-06-10T00:12:26;98378.25;;;13.75;81.79
57779;BME280;43608;49.486;9.640;2023-06-10T00:12:59;98393.19;;;13.82;81.41
57779;BME280;43608;49.486;9.640;2023-06-10T00:13:29;98391.44;;;13.81;81.83
57779;BME280;43608;49.486;9.640;2023-06-10T00:14:00;98392.31;;;13.82;81.77
57779;BME280;43608;49.486;9.640;2023-06-10T00:14:30;98388.00;;;13.76;81.85
57779;BME280;43608;49.486;9.640;2023-06-10T00:15:01;98373.97;;;13.69;81.94
57779;BME280;43608;49.486;9.640;2023-06-10T00:15:31;98388.88;;;13.77;82.12
57779;BME280;43608;49.486;9.640;2023-06-10T00:16:01;98399.50;;;13.78;82.00
57779;BME280;43608;49.486;9.640;2023-06-10T00:16:32;98394.19;;;13.77;82.05
57779;BME280;43608;49.486;9.640;2023-06-10T00:17:03;98387.13;;;13.76;82.19
57779;BME280;43608;49.486;9.640;2023-06-10T00:17:33;98394.28;;;13.74;82.03
57779;BME280;43608;49.486;9.640;2023-06-10T00:18:04;98374.94;;;13.64;82.23
57779;BME280;43608;49.486;9.640;2023-06-10T00:18:34;98375.00;;;13.62;82.29
57779;BME280;43608;49.486;9.640;2023-06-10T00:19:08;98382.88;;;13.67;82.25
57779;BME280;43608;49.486;9.640;2023-06-10T00:19:39;98399.56;;;13.75;82.19
57779;BME280;43608;49.486;9.640;2023-06-10T00:20:11;98395.16;;;13.74;82.36
57779;BME280;43608;49.486;9.640;2023-06-10T00:20:41;98392.56;;;13.71;82.48
57779;BME280;43608;49.486;9.640;2023-06-10T00:21:12;98397.81;;;13.74;82.68
57779;BME280;43608;49.486;9.640;2023-06-10T00:21:43;98402.28;;;13.74;82.46
57779;BME280;43608;49.486;9.640;2023-06-10T00:22:14;98397.84;;;13.73;82.45
57779;BME280;43608;49.486;9.640;2023-06-10T00:22:45;98390.84;;;13.68;82.42
57779;BME280;43608;49.486;9.640;2023-06-10T00:23:16;98389.94;;;13.69;82.37
57779;BME280;43608;49.486;9.640;2023-06-10T00:23:47;98388.22;;;13.67;82.36
57779;BME280;43608;49.486;9.640;2023-06-10T00:24:18;98381.25;;;13.60;82.40
57779;BME280;43608;49.486;9.640;2023-06-10T00:24:48;98389.16;;;13.63;82.21
57779;BME280;43608;49.486;9.640;2023-06-10T00:25:19;98355.94;;;13.40;82.23
57779;BME280;43608;49.486;9.640;2023-06-10T00:25:50;98401.50;;;13.68;82.27
57779;BME280;43608;49.486;9.640;2023-06-10T00:26:21;98390.97;;;13.62;82.32
57779;BME280;43608;49.486;9.640;2023-06-10T00:26:51;98405.09;;;13.66;82.41
57779;BME280;43608;49.486;9.640;2023-06-10T00:27:22;98403.34;;;13.65;82.16
57779;BME280;43608;49.486;9.640;2023-06-10T00:27:52;98403.38;;;13.63;82.28
57779;BME280;43608;49.486;9.640;2023-06-10T00:28:23;98376.22;;;13.47;82.32
57779;BME280;43608;49.486;9.640;2023-06-10T00:28:53;98400.75;;;13.62;82.38
57779;BME280;43608;49.486;9.640;2023-06-10T00:29:23;98378.00;;;13.45;82.50
57779;BME280;43608;49.486;9.640;2023-06-10T00:29:54;98384.16;;;13.49;82.58
57779;BME280;43608;49.486;9.640;2023-06-10T00:30:24;98403.47;;;13.59;82.72
57779;BME280;43608;49.486;9.640;2023-06-10T00:30:55;98397.31;;;13.57;82.67
57779;BME280;43608;49.486;9.640;2023-06-10T00:31:26;98385.13;;;13.43;82.51
57779;BME280;43608;49.486;9.640;2023-06-10T00:32:00;98399.97;;;13.55;82.66
57779;BME280;43608;49.486;9.640;2023-06-10T00:32:30;98393.88;;;13.51;82.02
57779;BME280;43608;49.486;9.640;2023-06-10T00:33:01;98401.81;;;13.53;82.41
57779;BME280;43608;49.486;9.640;2023-06-10T00:33:31;98405.34;;;13.53;82.47
57779;BME280;43608;49.486;9.640;2023-06-10T00:34:02;98404.47;;;13.53;82.52
57779;BME280;43608;49.486;9.640;2023-06-10T00:34:32;98381.69;;;13.38;82.50
57779;BME280;43608;49.486;9.640;2023-06-10T00:35:03;98400.13;;;13.49;82.72
57779;BME280;43608;49.486;9.640;2023-06-10T00:35:34;98398.41;;;13.46;82.87
57779;BME280;43608;49.486;9.640;2023-06-10T00:36:04;98400.94;;;13.51;82.63
57779;BME280;43608;49.486;9.640;2023-06-10T00:36:35;98399.22;;;13.48;82.78
57779;BME280;43608;49.486;9.640;2023-06-10T00:37:06;98410.78;;;13.49;82.84
57779;BME280;43608;49.486;9.640;2023-06-10T00:37:36;98399.31;;;13.45;82.92
57779;BME280;43608;49.486;9.640;2023-06-10T00:38:06;98407.19;;;13.50;82.83
57779;BME280;43608;49.486;9.640;2023-06-10T00:38:37;98377.34;;;13.32;82.75
57779;BME280;43608;49.486;9.640;2023-06-10T00:39:07;98381.78;;;13.33;82.88
57779;BME280;43608;49.486;9.640;2023-06-10T00:39:38;98406.44;;;13.45;82.87
57779;BME280;43608;49.486;9.640;2023-06-10T00:40:08;98396.75;;;13.39;83.03
57779;BME280;43608;49.486;9.640;2023-06-10T00:40:40;98376.53;;;13.29;82.93
57779;BME280;43608;49.486;9.640;2023-06-10T00:41:14;98403.81;;;13.42;82.82
57779;BME280;43608;49.486;9.640;2023-06-10T00:41:44;98416.19;;;13.44;82.85
57779;BME280;43608;49.486;9.640;2023-06-10T00:42:14;98415.31;;;13.44;83.08
57779;BME280;43608;49.486;9.640;2023-06-10T00:42:45;98412.63;;;13.45;83.24
57779;BME280;43608;49.486;9.640;2023-06-10T00:43:15;98411.84;;;13.40;82.93
57779;BME280;43608;49.486;9.640;2023-06-10T00:43:45;98410.03;;;13.41;82.96
57779;BME280;43608;49.486;9.640;2023-06-10T00:44:16;98381.97;;;13.22;82.92
57779;BME280;43608;49.486;9.640;2023-06-10T00:44:46;98416.22;;;13.43;82.91
57779;BME280;43608;49.486;9.640;2023-06-10T00:45:17;98398.66;;;13.32;83.12
57779;BME280;43608;49.486;9.640;2023-06-10T00:45:47;98403.97;;;13.32;83.09
57779;BME280;43608;49.486;9.640;2023-06-10T00:46:17;98401.34;;;13.31;83.19
57779;BME280;43608;49.486;9.640;2023-06-10T00:46:48;98417.22;;;13.37;83.28
57779;BME280;43608;49.486;9.640;2023-06-10T00:47:21;98416.28;;;13.38;83.08
57779;BME280;43608;49.486;9.640;2023-06-10T00:47:52;98408.44;;;13.32;82.98
57779;BME280;43608;49.486;9.640;2023-06-10T00:48:22;98406.63;;;13.32;83.10
57779;BME280;43608;49.486;9.640;2023-06-10T00:48:53;98403.22;;;13.26;82.92
57779;BME280;43608;49.486;9.640;2023-06-10T00:49:24;98420.78;;;13.34;83.02
57779;BME280;43608;49.486;9.640;2023-06-10T00:49:55;98407.56;;;13.30;82.98
57779;BME280;43608;49.486;9.640;2023-06-10T00:50:26;98418.13;;;13.33;83.18
57779;BME280;43608;49.486;9.640;2023-06-10T00:50:56;98416.41;;;13.32;83.31
57779;BME280;43608;49.486;9.640;2023-06-10T00:51:28;98418.16;;;13.31;83.18
57779;BME280;43608;49.486;9.640;2023-06-10T00:51:58;98413.00;;;13.23;83.31
57779;BME280;43608;49.486;9.640;2023-06-10T00:52:29;98423.50;;;13.31;83.39
57779;BME280;43608;49.486;9.640;2023-06-10T00:53:03;98406.78;;;13.25;83.28
57779;BME280;43608;49.486;9.640;2023-06-10T00:53:33;98411.28;;;13.21;83.56
57779;BME280;43608;49.486;9.640;2023-06-10T00:54:04;98360.34;;;12.96;83.34
57779;BME280;43608;49.486;9.640;2023-06-10T00:54:35;98421.78;;;13.29;83.77
57779;BME280;43608;49.486;9.640;2023-06-10T00:55:05;98417.34;;;13.29;83.66
57779;BME280;43608;49.486;9.640;2023-06-10T00:55:37;98404.22;;;13.18;83.56
57779;BME280;43608;49.486;9.640;2023-06-10T00:56:08;98420.03;;;13.26;83.67
57779;BME280;43608;49.486;9.640;2023-06-10T00:56:39;98406.06;;;13.16;83.77
57779;BME280;43608;49.486;9.640;2023-06-10T00:57:09;98419.22;;;13.24;83.60
57779;BME280;43608;49.486;9.640;2023-06-10T00:57:40;98419.22;;;13.24;83.63
57779;BME280;43608;49.486;9.640;2023-06-10T00:58:11;98408.66;;;13.19;83.81
57779;BME280;43608;49.486;9.640;2023-06-10T00:58:41;98425.38;;;13.26;83.79
57779;BME280;43608;49.486;9.640;2023-06-10T00:59:12;98425.41;;;13.25;83.90
57779;BME280;43608;49.486;9.640;2023-06-10T00:59:47;98419.25;;;13.21;83.78
57779;BME280;43608;49.486;9.640;2023-06-10T01:00:18;98395.56;;;13.09;83.92
57779;BME280;43608;49.486;9.640;2023-06-10T01:00:49;98420.13;;;13.23;83.97
57779;BME280;43608;49.486;9.640;2023-06-10T01:01:19;98410.47;;;13.16;83.92
57779;BME280;43608;49.486;9.640;2023-06-10T01:01:50;98415.78;;;13.19;83.89
57779;BME280;43608;49.486;9.640;2023-06-10T01:02:22;98386.81;;;13.02;83.88
57779;BME280;43608;49.486;9.640;2023-06-10T01:02:52;98402.59;;;13.11;83.98
57779;BME280;43608;49.486;9.640;2023-06-10T01:03:24;98363.13;;;12.88;83.71
57779;BME280;43608;49.486;9.640;2023-06-10T01:03:55;98409.69;;;13.12;84.06
57779;BME280;43608;49.486;9.640;2023-06-10T01:04:25;98422.84;;;13.20;83.72
57779;BME280;43608;49.486;9.640;2023-06-10T01:04:55;98417.53;;;13.18;83.80
57779;BME280;43608;49.486;9.640;2023-06-10T01:05:26;98414.94;;;13.15;83.79
57779;BME280;43608;49.486;9.640;2023-06-10T01:06:01;98415.81;;;13.17;83.77
57779;BME280;43608;49.486;9.640;2023-06-10T01:06:42;98422.03;;;13.16;84.05
57779;BME280;43608;49.486;9.640;2023-06-10T01:07:29;98422.94;;;13.15;83.98
57779;BME280;43608;49.486;9.640;2023-06-10T01:08:48;98422.97;;;13.14;84.10
57779;BME280;43608;49.486;9.640;2023-06-10T01:09:39;98422.06;;;13.13;84.03
57779;BME280;43608;49.486;9.640;2023-06-10T01:10:18;98413.34;;;13.05;83.63
57779;BME280;43608;49.486;9.640;2023-06-10T01:10:53;98417.66;;;13.12;83.94
57779;BME280;43608;49.486;9.640;2023-06-10T01:11:29;98423.84;;;13.13;83.68
57779;BME280;43608;49.486;9.640;2023-06-10T01:12:12;98423.91;;;13.11;83.88
57779;BME280;43608;49.486;9.640;2023-06-10T01:13:27;98416.88;;;13.07;83.72
57779;BME280;43608;49.486;9.640;2023-06-10T01:14:03;98408.91;;;13.07;83.82
57779;BME280;43608;49.486;9.640;2023-06-10T01:14:38;98418.56;;;13.11;84.25
57779;BME280;43608;49.486;9.640;2023-06-10T01:15:16;98417.66;;;13.12;83.56
57779;BME280;43608;49.486;9.640;2023-06-10T01:15:47;98411.50;;;13.10;83.67
57779;BME280;43608;49.486;9.640;2023-06-10T01:16:21;98401.84;;;13.04;83.90
57779;BME280;43608;49.486;9.640;2023-06-10T01:16:52;98411.41;;;13.13;83.75
57779;BME280;43608;49.486;9.640;2023-06-10T01:17:23;98409.72;;;13.09;83.79
57779;BME280;43608;49.486;9.640;2023-06-10T01:18:05;98412.34;;;13.12;83.79
57779;BME280;43608;49.486;9.640;2023-06-10T01:18:40;98419.44;;;13.12;83.48
57779;BME280;43608;49.486;9.640;2023-06-10T01:19:12;98408.91;;;13.05;83.77
57779;BME280;43608;49.486;9.640;2023-06-10T01:19:54;98415.94;;;13.10;83.98
57779;BME280;43608;49.486;9.640;2023-06-10T01:20:26;98413.28;;;13.08;83.76
57779;BME280;43608;49.486;9.640;2023-06-10T01:20:59;98414.22;;;13.07;83.68
57779;BME280;43608;49.486;9.640;2023-06-10T01:21:30;98385.31;;;12.87;84.11
57779;BME280;43608;49.486;9.640;2023-06-10T01:22:01;98416.03;;;13.05;83.82
57779;BME280;43608;49.486;9.640;2023-06-10T01:22:31;98407.28;;;12.98;83.99
57779;BME280;43608;49.486;9.640;2023-06-10T01:23:07;98417.00;;;13.01;83.87
57779;BME280;43608;49.486;9.640;2023-06-10T01:23:37;98417.91;;;12.98;84.06
57779;BME280;43608;49.486;9.640;2023-06-10T01:24:08;98407.41;;;12.91;84.03
57779;BME280;43608;49.486;9.640;2023-06-10T01:24:38;98409.16;;;12.93;84.16
57779;BME280;43608;49.486;9.640;2023-06-10T01:25:10;98405.66;;;12.89;84.30
57779;BME280;43608;49.486;9.640;2023-06-10T01:25:47;98410.00;;;12.94;84.02
57779;BME280;43608;49.486;9.640;2023-06-10T01:26:23;98416.22;;;12.93;84.11
57779;BME280;43608;49.486;9.640;2023-06-10T01:27:00;98413.66;;;12.88;84.25
57779;BME280;43608;49.486;9.640;2023-06-10T01:27:33;98414.56;;;12.87;84.25
57779;BME280;43608;49.486;9.640;2023-06-10T01:28:13;98396.19;;;12.75;84.30
57779;BME280;43608;49.486;9.640;2023-06-10T01:29:04;98422.63;;;12.84;84.39
57779;BME280;43608;49.486;9.640;2023-06-10T01:29:43;98413.78;;;12.82;84.37
57779;BME280;43608;49.486;9.640;2023-06-10T01:30:18;98387.50;;;12.63;84.38
57779;BME280;43608;49.486;9.640;2023-06-10T01:31:02;98409.44;;;12.76;84.57
57779;BME280;43608;49.486;9.640;2023-06-10T01:31:49;98416.53;;;12.76;84.53
57779;BME280;43608;49.486;9.640;2023-06-10T01:32:33;98411.25;;;12.74;84.71
57779;BME280;43608;49.486;9.640;2023-06-10T01:33:07;98413.94;;;12.72;84.88
57779;BME280;43608;49.486;9.640;2023-06-10T01:33:43;98416.63;;;12.71;84.89
57779;BME280;43608;49.486;9.640;2023-06-10T01:34:17;98407.84;;;12.66;84.82
57779;BME280;43608;49.486;9.640;2023-06-10T01:34:49;98402.56;;;12.63;85.07
57779;BME280;43608;49.486;9.640;2023-06-10T01:35:21;98390.31;;;12.55;84.86
57779;BME280;43608;49.486;9.640;2023-06-10T01:35:58;98414.94;;;12.65;85.21
57779;BME280;43608;49.486;9.640;2023-06-10T01:36:29;98382.50;;;12.46;85.49
57779;BME280;43608;49.486;9.640;2023-06-10T01:37:02;98408.78;;;12.63;85.52
57779;BME280;43608;49.486;9.640;2023-06-10T01:37:34;98403.56;;;12.57;85.45
57779;BME280;43608;49.486;9.640;2023-06-10T01:38:06;98415.00;;;12.62;85.98
57779;BME280;43608;49.486;9.640;2023-06-10T01:38:40;98421.22;;;12.61;85.50
57779;BME280;43608;49.486;9.640;2023-06-10T01:39:12;98418.59;;;12.60;85.74
57779;BME280;43608;49.486;9.640;2023-06-10T01:39:46;98417.75;;;12.58;85.68
57779;BME280;43608;49.486;9.640;2023-06-10T01:40:16;98412.50;;;12.53;85.65
57779;BME280;43608;49.486;9.640;2023-06-10T01:40:49;98403.69;;;12.49;85.66
57779;BME280;43608;49.486;9.640;2023-06-10T01:41:20;98413.38;;;12.52;85.75
57779;BME280;43608;49.486;9.640;2023-06-10T01:41:52;98417.81;;;12.53;85.95
57779;BME280;43608;49.486;9.640;2023-06-10T01:42:23;98412.56;;;12.48;85.84
57779;BME280;43608;49.486;9.640;2023-06-10T01:42:53;98420.50;;;12.51;85.79
57779;BME280;43608;49.486;9.640;2023-06-10T01:43:23;98416.97;;;12.49;86.15
57779;BME280;43608;49.486;9.640;2023-06-10T01:43:54;98423.19;;;12.48;85.87
57779;BME280;43608;49.486;9.640;2023-06-10T01:44:25;98420.63;;;12.44;85.87
57779;BME280;43608;49.486;9.640;2023-06-10T01:44:55;98366.09;;;12.18;85.96
57779;BME280;43608;49.486;9.640;2023-06-10T01:45:26;98419.69;;;12.46;85.96
57779;BME280;43608;49.486;9.640;2023-06-10T01:45:56;98418.84;;;12.44;85.97
57779;BME280;43608;49.486;9.640;2023-06-10T01:46:27;98413.56;;;12.41;85.90
57779;BME280;43608;49.486;9.640;2023-06-10T01:46:57;98415.34;;;12.40;85.93
57779;BME280;43608;49.486;9.640;2023-06-10T01:47:27;98418.88;;;12.43;86.35
57779;BME280;43608;49.486;9.640;2023-06-10T01:47:58;98417.09;;;12.42;85.83
57779;BME280;43608;49.486;9.640;2023-06-10T01:48:28;98414.53;;;12.37;86.04
57779;BME280;43608;49.486;9.640;2023-06-10T01:48:58;98424.25;;;12.38;85.89
57779;BME280;43608;49.486;9.640;2023-06-10T01:49:29;98418.06;;;12.37;86.02
57779;BME280;43608;49.486;9.640;2023-06-10T01:49:59;98423.34;;;12.39;86.07
57779;BME280;43608;49.486;9.640;2023-06-10T01:50:30;98415.50;;;12.31;86.19
57779;BME280;43608;49.486;9.640;2023-06-10T01:51:00;98426.97;;;12.35;86.47
57779;BME280;43608;49.486;9.640;2023-06-10T01:51:30;98419.03;;;12.32;86.11
57779;BME280;43608;49.486;9.640;2023-06-10T01:52:02;98412.88;;;12.28;86.27
57779;BME280;43608;49.486;9.640;2023-06-10T01:52:32;98425.22;;;12.32;86.30
57779;BME280;43608;49.486;9.640;2023-06-10T01:53:03;98423.47;;;12.31;86.36
57779;BME280;43608;49.486;9.640;2023-06-10T01:53:34;98421.72;;;12.30;86.37
57779;BME280;43608;49.486;9.640;2023-06-10T01:54:04;98427.03;;;12.30;86.32
57779;BME280;43608;49.486;9.640;2023-06-10T01:54:35;98417.34;;;12.26;86.32
57779;BME280;43608;49.486;9.640;2023-06-10T01:55:06;98419.06;;;12.29;86.60
57779;BME280;43608;49.486;9.640;2023-06-10T01:55:36;98394.59;;;12.10;86.45
57779;BME280;43608;49.486;9.640;2023-06-10T01:56:07;98409.50;;;12.17;86.15
57779;BME280;43608;49.486;9.640;2023-06-10T01:56:37;98420.06;;;12.23;86.49
57779;BME280;43608;49.486;9.640;2023-06-10T01:57:07;98424.44;;;12.26;86.54
57779;BME280;43608;49.486;9.640;2023-06-10T01:57:37;98423.59;;;12.22;86.46
57779;BME280;43608;49.486;9.640;2023-06-10T01:58:08;98407.78;;;12.14;86.45
57779;BME280;43608;49.486;9.640;2023-06-10T01:58:38;98420.94;;;12.22;86.34
57779;BME280;43608;49.486;9.640;2023-06-10T01:59:09;98413.09;;;12.14;86.64
57779;BME280;43608;49.486;9.640;2023-06-10T01:59:39;98417.47;;;12.17;86.63
57779;BME280;43608;49.486;9.640;2023-06-10T02:00:10;98417.50;;;12.15;86.67
57779;BME280;43608;49.486;9.640;2023-06-10T02:00:40;98423.63;;;12.20;86.54
57779;BME280;43608;49.486;9.640;2023-06-10T02:01:11;98416.66;;;12.15;86.55
57779;BME280;43608;49.486;9.640;2023-06-10T02:01:41;98421.94;;;12.16;86.92
57779;BME280;43608;49.486;9.640;2023-06-10T02:02:11;98433.44;;;12.17;86.69
57779;BME280;43608;49.486;9.640;2023-06-10T02:02:42;98407.00;;;12.07;86.91
57779;BME280;43608;49.486;9.640;2023-06-10T02:03:12;98423.69;;;12.17;86.57
57779;BME280;43608;49.486;9.640;2023-06-10T02:03:43;98371.00;;;11.83;86.74
57779;BME280;43608;49.486;9.640;2023-06-10T02:04:13;98422.78;;;12.17;86.76
57779;BME280;43608;49.486;9.640;2023-06-10T02:04:43;98421.09;;;12.13;86.91
57779;BME280;43608;49.486;9.640;2023-06-10T02:05:14;98412.31;;;12.07;86.79
57779;BME280;43608;49.486;9.640;2023-06-10T02:05:44;98402.63;;;12.03;86.99
57779;BME280;43608;49.486;9.640;2023-06-10T02:06:15;98423.78;;;12.11;86.90
57779;BME280;43608;49.486;9.640;2023-06-10T02:06:45;98426.47;;;12.08;87.19
57779;BME280;43608;49.486;9.640;2023-06-10T02:07:15;98416.75;;;12.07;87.26
57779;BME280;43608;49.486;9.640;2023-06-10T02:07:46;98419.41;;;12.07;87.29
57779;BME280;43608;49.486;9.640;2023-06-10T02:08:16;98424.66;;;12.10;86.93
57779;BME280;43608;49.486;9.640;2023-06-10T02:08:46;98415.88;;;12.05;87.02
57779;BME280;43608;49.486;9.640;2023-06-10T02:09:17;98418.59;;;12.02;86.88
57779;BME280;43608;49.486;9.640;2023-06-10T02:09:48;98434.47;;;12.06;87.00
57779;BME280;43608;49.486;9.640;2023-06-10T02:10:19;98424.81;;;12.01;87.20
57779;BME280;43608;49.486;9.640;2023-06-10T02:10:50;98429.16;;;12.05;87.49
57779;BME280;43608;49.486;9.640;2023-06-10T02:11:20;98425.66;;;12.01;87.27
57779;BME280;43608;49.486;9.640;2023-06-10T02:11:50;98418.63;;;11.99;87.26
57779;BME280;43608;49.486;9.640;2023-06-10T02:12:21;98423.94;;;12.00;87.21
57779;BME280;43608;49.486;9.640;2023-06-10T02:12:51;98415.13;;;11.97;87.40
57779;BME280;43608;49.486;9.640;2023-06-10T02:13:21;98423.06;;;11.98;87.53
57779;BME280;43608;49.486;9.640;2023-06-10T02:13:52;98426.59;;;11.99;87.49
57779;BME280;43608;49.486;9.640;2023-06-10T02:14:22;98416.88;;;11.95;87.51
57779;BME280;43608;49.486;9.640;2023-06-10T02:14:52;98416.03;;;11.94;87.59
57779;BME280;43608;49.486;9.640;2023-06-10T02:15:23;98410.78;;;11.88;87.61
57779;BME280;43608;49.486;9.640;2023-06-10T02:15:53;98417.00;;;11.87;87.58
57779;BME280;43608;49.486;9.640;2023-06-10T02:16:24;98419.63;;;11.88;87.74
57779;BME280;43608;49.486;9.640;2023-06-10T02:16:54;98425.81;;;11.90;87.58
57779;BME280;43608;49.486;9.640;2023-06-10T02:17:26;98432.81;;;11.96;87.37
57779;BME280;43608;49.486;9.640;2023-06-10T02:17:56;98422.31;;;11.87;87.30
57779;BME280;43608;49.486;9.640;2023-06-10T02:18:28;98431.97;;;11.96;87.40
57779;BME280;43608;49.486;9.640;2023-06-10T02:18:58;98435.50;;;11.93;87.16
57779;BME280;43608;49.486;9.640;2023-06-10T02:19:30;98413.53;;;11.82;87.14
57779;BME280;43608;49.486;9.640;2023-06-10T02:20:01;98430.28;;;11.85;87.18
57779;BME280;43608;49.486;9.640;2023-06-10T02:20:36;98414.47;;;11.78;86.92
57779;BME280;43608;49.486;9.640;2023-06-10T02:21:07;98421.50;;;11.82;86.94
57779;BME280;43608;49.486;9.640;2023-06-10T02:21:37;98423.28;;;11.81;86.94
57779;BME280;43608;49.486;9.640;2023-06-10T02:22:08;98432.09;;;11.83;87.08
57779;BME280;43608;49.486;9.640;2023-06-10T02:22:40;98431.16;;;11.86;86.92
57779;BME280;43608;49.486;9.640;2023-06-10T02:23:10;98431.19;;;11.84;86.86
57779;BME280;43608;49.486;9.640;2023-06-10T02:23:40;98422.47;;;11.76;87.35
57779;BME280;43608;49.486;9.640;2023-06-10T02:24:11;98435.63;;;11.84;87.28
57779;BME280;43608;49.486;9.640;2023-06-10T02:24:41;98425.06;;;11.79;87.16
57779;BME280;43608;49.486;9.640;2023-06-10T02:25:12;98432.13;;;11.80;87.29
57779;BME280;43608;49.486;9.640;2023-06-10T02:25:43;98433.00;;;11.82;87.31
57779;BME280;43608;49.486;9.640;2023-06-10T02:26:13;98421.63;;;11.72;87.06
57779;BME280;43608;49.486;9.640;2023-06-10T02:26:43;98400.47;;;11.65;87.38
57779;BME280;43608;49.486;9.640;2023-06-10T02:27:17;98434.78;;;11.80;87.38
57779;BME280;43608;49.486;9.640;2023-06-10T02:27:48;98431.28;;;11.80;87.48
57779;BME280;43608;49.486;9.640;2023-06-10T02:28:18;98430.38;;;11.79;87.72
57779;BME280;43608;49.486;9.640;2023-06-10T02:28:49;98412.84;;;11.66;87.53
57779;BME280;43608;49.486;9.640;2023-06-10T02:29:19;98433.91;;;11.78;87.74
57779;BME280;43608;49.486;9.640;2023-06-10T02:29:50;98417.22;;;11.70;87.72
57779;BME280;43608;49.486;9.640;2023-06-10T02:30:20;98430.41;;;11.78;87.70
57779;BME280;43608;49.486;9.640;2023-06-10T02:30:51;98436.56;;;11.78;87.80
57779;BME280;43608;49.486;9.640;2023-06-10T02:31:22;98428.63;;;11.77;87.83
57779;BME280;43608;49.486;9.640;2023-06-10T02:31:54;98434.84;;;11.74;87.88
57779;BME280;43608;49.486;9.640;2023-06-10T02:32:24;98427.78;;;11.74;87.86
57779;BME280;43608;49.486;9.640;2023-06-10T02:32:55;98435.75;;;11.74;87.94
57779;BME280;43608;49.486;9.640;2023-06-10T02:33:26;98434.84;;;11.76;87.78
57779;BME280;43608;49.486;9.640;2023-06-10T02:33:57;98433.09;;;11.74;88.13
57779;BME280;43608;49.486;9.640;2023-06-10T02:34:27;98430.47;;;11.71;87.79
57779;BME280;43608;49.486;9.640;2023-06-10T02:34:58;98376.06;;;11.38;87.68
57779;BME280;43608;49.486;9.640;2023-06-10T02:35:30;98426.97;;;11.69;88.11
57779;BME280;43608;49.486;9.640;2023-06-10T02:36:00;98428.72;;;11.72;88.10
57779;BME280;43608;49.486;9.640;2023-06-10T02:36:31;98434.91;;;11.71;88.16
57779;BME280;43608;49.486;9.640;2023-06-10T02:37:01;98412.91;;;11.61;88.08
57779;BME280;43608;49.486;9.640;2023-06-10T02:37:32;98432.31;;;11.68;88.24
57779;BME280;43608;49.486;9.640;2023-06-10T02:38:02;98411.25;;;11.54;88.14
57779;BME280;43608;49.486;9.640;2023-06-10T02:38:33;98429.72;;;11.62;88.24
57779;BME280;43608;49.486;9.640;2023-06-10T02:39:03;98422.66;;;11.61;88.40
57779;BME280;43608;49.486;9.640;2023-06-10T02:39:34;98430.59;;;11.62;88.50
57779;BME280;43608;49.486;9.640;2023-06-10T02:40:05;98434.09;;;11.66;88.30
57779;BME280;43608;49.486;9.640;2023-06-10T02:40:36;98430.59;;;11.62;88.38
57779;BME280;43608;49.486;9.640;2023-06-10T02:41:06;98431.53;;;11.58;88.62
57779;BME280;43608;49.486;9.640;2023-06-10T02:41:37;98429.72;;;11.62;88.69
57779;BME280;43608;49.486;9.640;2023-06-10T02:42:08;98434.16;;;11.63;88.42
57779;BME280;43608;49.486;9.640;2023-06-10T02:42:38;98441.19;;;11.64;88.66
57779;BME280;43608;49.486;9.640;2023-06-10T02:43:09;98437.66;;;11.63;88.60
57779;BME280;43608;49.486;9.640;2023-06-10T02:43:39;98422.69;;;11.56;88.38
57779;BME280;43608;49.486;9.640;2023-06-10T02:44:09;98421.88;;;11.51;88.76
57779;BME280;43608;49.486;9.640;2023-06-10T02:44:40;98435.91;;;11.62;88.71
57779;BME280;43608;49.486;9.640;2023-06-10T02:45:10;98431.59;;;11.52;88.75
57779;BME280;43608;49.486;9.640;2023-06-10T02:45:40;98439.50;;;11.58;88.71
57779;BME280;43608;49.486;9.640;2023-06-10T02:46:11;98433.38;;;11.53;88.86
57779;BME280;43608;49.486;9.640;2023-06-10T02:46:41;98443.00;;;11.58;88.81
57779;BME280;43608;49.486;9.640;2023-06-10T02:47:11;98443.00;;;11.58;88.34
57779;BME280;43608;49.486;9.640;2023-06-10T02:47:42;98446.59;;;11.57;88.66
57779;BME280;43608;49.486;9.640;2023-06-10T02:48:12;98420.25;;;11.40;88.54
57779;BME280;43608;49.486;9.640;2023-06-10T02:48:43;98429.00;;;11.49;88.60
57779;BME280;43608;49.486;9.640;2023-06-10T02:49:16;98433.41;;;11.50;88.57